createdAt,value
2023-04-25T00:00:46.373Z,2.40
2023-04-25T00:03:17.318Z,1.10
2023-04-25T00:05:48.998Z,1.70
2023-04-25T00:08:19.599Z,0.70
2023-04-25T00:10:50.837Z,0.80
2023-04-25T00:13:21.642Z,0.60
2023-04-25T00:15:52.605Z,0.70
2023-04-25T00:18:23.247Z,0.60
2023-04-25T00:20:53.676Z,0.90
2023-04-25T00:23:24.981Z,0.60
2023-04-25T00:25:55.475Z,1.40
2023-04-25T00:28:25.945Z,0.80
2023-04-25T00:30:56.429Z,1.20
2023-04-25T00:33:27.095Z,2.40
2023-04-25T00:35:58.226Z,0.90
2023-04-25T00:38:28.621Z,0.80
2023-04-25T00:40:59.095Z,1.40
2023-04-25T00:43:32.265Z,1.00
2023-04-25T00:46:03.228Z,0.80
2023-04-25T00:48:33.556Z,1.00
2023-04-25T00:51:04.014Z,1.10
2023-04-25T00:53:34.731Z,3.20
2023-04-25T00:56:05.350Z,1.40
2023-04-25T00:58:35.824Z,1.50
2023-04-25T01:01:07.873Z,1.90
2023-04-25T01:03:42.600Z,2.10
2023-04-25T01:06:13.762Z,2.40
2023-04-25T01:08:44.552Z,3.60
2023-04-25T01:11:15.158Z,2.10
2023-04-25T01:13:45.691Z,2.80
2023-04-25T01:16:16.972Z,1.90
2023-04-25T01:18:49.086Z,2.30
2023-04-25T01:21:19.682Z,3.00
2023-04-25T01:23:52.268Z,1.70
2023-04-25T01:26:23.290Z,2.70
2023-04-25T01:28:54.225Z,1.50
2023-04-25T01:31:24.759Z,3.20
2023-04-25T01:33:55.310Z,2.20
2023-04-25T01:36:26.289Z,2.10
2023-04-25T01:38:57.226Z,1.60
2023-04-25T01:41:27.740Z,3.70
2023-04-25T01:43:58.641Z,2.10
2023-04-25T01:46:29.579Z,2.10
2023-04-25T01:48:59.977Z,1.70
2023-04-25T01:51:31.084Z,1.70
2023-04-25T01:54:02.574Z,1.90
2023-04-25T01:56:38.333Z,2.50
2023-04-25T01:59:10.566Z,1.70
2023-04-25T02:01:54.004Z,2.00
2023-04-25T02:04:27.715Z,1.70
2023-04-25T02:06:59.109Z,2.00
2023-04-25T02:09:37.238Z,2.80
2023-04-25T02:12:11.808Z,1.80
2023-04-25T02:17:46.321Z,1.30
2023-04-25T02:20:18.330Z,2.50
2023-04-25T02:22:48.870Z,2.30
2023-04-25T02:25:20.988Z,2.80
2023-04-25T02:27:52.394Z,2.30
2023-04-25T02:30:23.114Z,2.30
2023-04-25T02:32:53.670Z,2.30
2023-04-25T02:35:24.289Z,2.30
2023-04-25T02:37:58.076Z,3.60
2023-04-25T02:40:28.556Z,2.50
2023-04-25T02:42:58.954Z,2.60
2023-04-25T02:45:30.696Z,3.70
2023-04-25T02:48:01.170Z,3.90
2023-04-25T02:50:31.639Z,5.20
2023-04-25T02:53:02.291Z,2.80
2023-04-25T02:55:38.063Z,4.40
2023-04-25T02:58:08.741Z,2.60
2023-04-25T03:00:47.922Z,2.80
2023-04-25T03:03:22.754Z,4.40
2023-04-25T03:05:54.095Z,3.60
2023-04-25T03:11:04.506Z,2.10
2023-04-25T03:13:34.921Z,2.20
2023-04-25T03:16:05.714Z,3.80
2023-04-25T03:18:36.156Z,2.80
2023-04-25T03:21:06.910Z,2.40
2023-04-25T03:23:37.311Z,3.90
2023-04-25T03:26:07.733Z,3.30
2023-04-25T03:28:38.215Z,2.30
2023-04-25T03:31:08.626Z,2.30
2023-04-25T03:33:39.171Z,3.90
2023-04-25T03:36:11.607Z,2.60
2023-04-25T03:38:42.867Z,2.90
2023-04-25T03:41:13.615Z,3.50
2023-04-25T03:43:48.071Z,3.70
2023-04-25T03:46:19.923Z,3.70
2023-04-25T03:48:51.381Z,2.50
2023-04-25T03:51:32.417Z,5.20
2023-04-25T03:54:02.748Z,2.90
2023-04-25T03:56:35.714Z,3.10
2023-04-25T03:59:13.553Z,3.80
2023-04-25T04:01:44.036Z,3.60
2023-04-25T04:04:14.929Z,3.70
2023-04-25T04:06:46.905Z,5.90
2023-04-25T04:09:21.934Z,2.50
2023-04-25T04:11:52.936Z,3.80
2023-04-25T04:14:23.780Z,3.30
2023-04-25T04:16:55.807Z,3.50
2023-04-25T04:19:26.763Z,3.20
2023-04-25T04:22:08.370Z,3.50
2023-04-25T04:24:39.101Z,4.70
2023-04-25T04:27:13.695Z,3.70
2023-04-25T04:30:04.276Z,4.10
2023-04-25T04:32:38.645Z,5.50
2023-04-25T04:35:12.130Z,5.20
2023-04-25T04:37:43.105Z,4.90
2023-04-25T04:40:17.402Z,3.00
2023-04-25T04:42:58.432Z,4.20
2023-04-25T04:45:48.660Z,4.70
2023-04-25T04:48:36.096Z,4.80
2023-04-25T04:51:24.288Z,3.50
2023-04-25T04:54:14.215Z,4.60
2023-04-25T04:56:54.683Z,5.40
2023-04-25T04:59:40.088Z,3.60
2023-04-25T05:02:17.853Z,4.00
2023-04-25T05:05:23.645Z,4.30
2023-04-25T05:08:15.229Z,5.30
2023-04-25T05:10:57.312Z,5.60
2023-04-25T05:13:37.864Z,3.10
2023-04-25T05:16:26.983Z,5.30
2023-04-25T05:19:17.634Z,6.00
2023-04-25T05:21:55.426Z,3.50
2023-04-25T05:24:34.967Z,3.20
2023-04-25T05:27:23.919Z,5.00
2023-04-25T05:30:16.033Z,3.10
2023-04-25T05:35:33.310Z,5.00
2023-04-25T05:38:04.849Z,3.50
2023-04-25T05:40:58.227Z,3.80
2023-04-25T05:43:48.208Z,5.50
2023-04-25T05:46:27.521Z,4.30
2023-04-25T05:49:23.001Z,6.60
2023-04-25T05:52:22.811Z,5.00
2023-04-25T05:55:07.816Z,5.80
2023-04-25T05:57:38.171Z,4.40
2023-04-25T06:00:12.644Z,3.20
2023-04-25T06:02:46.406Z,4.00
2023-04-25T06:05:18.517Z,4.20
2023-04-25T06:07:50.110Z,3.90
2023-04-25T06:10:20.583Z,3.30
2023-04-25T06:12:51.733Z,3.30
2023-04-25T06:15:28.715Z,4.30
2023-04-25T06:20:28.846Z,7.10
2023-04-25T06:23:01.712Z,4.00
2023-04-25T06:25:47.875Z,3.60
2023-04-25T06:28:18.800Z,3.90
2023-04-25T06:30:49.332Z,3.30
2023-04-25T06:33:22.529Z,3.50
2023-04-25T06:35:53.873Z,4.70
2023-04-25T06:38:27.672Z,6.00
2023-04-25T06:41:00.155Z,3.00
2023-04-25T06:43:34.148Z,4.20
2023-04-25T06:46:07.259Z,3.10
2023-04-25T06:48:43.277Z,4.20
2023-04-25T06:51:14.815Z,3.10
2023-04-25T06:53:45.611Z,3.60
2023-04-25T06:56:24.368Z,4.00
2023-04-25T06:59:01.537Z,5.30
2023-04-25T07:01:35.118Z,4.70
2023-04-25T07:04:08.422Z,5.10
2023-04-25T07:06:43.746Z,4.60
2023-04-25T07:09:15.525Z,3.00
2023-04-25T07:11:47.107Z,3.70
2023-04-25T07:14:17.495Z,3.60
2023-04-25T07:16:47.877Z,3.20
2023-04-25T07:19:18.252Z,5.10
2023-04-25T07:21:48.979Z,4.30
2023-04-25T07:24:20.124Z,2.50
2023-04-25T07:26:51.054Z,3.90
2023-04-25T07:29:31.067Z,2.70
2023-04-25T07:32:03.203Z,3.20
2023-04-25T07:34:33.847Z,4.30
2023-04-25T07:37:04.414Z,1.60
2023-04-25T07:39:40.032Z,4.70
2023-04-25T07:42:10.808Z,3.70
2023-04-25T07:44:43.822Z,3.50
2023-04-25T07:47:15.292Z,4.80
2023-04-25T07:49:46.282Z,4.90
2023-04-25T07:52:16.763Z,4.90
2023-04-25T07:54:52.970Z,6.10
2023-04-25T07:57:27.860Z,3.00
2023-04-25T07:59:59.056Z,5.20
2023-04-25T08:02:30.535Z,4.30
2023-04-25T08:05:01.161Z,7.30
2023-04-25T08:07:32.067Z,7.10
2023-04-25T08:10:06.175Z,5.30
2023-04-25T08:12:37.426Z,4.80
2023-04-25T08:15:11.103Z,7.10
2023-04-25T08:17:45.123Z,4.90
2023-04-25T08:20:16.609Z,7.30
2023-04-25T08:22:48.133Z,4.80
2023-04-25T08:25:30.135Z,6.30
2023-04-25T08:28:03.760Z,4.80
2023-04-25T08:30:34.336Z,5.30
2023-04-25T08:33:04.997Z,5.80
2023-04-25T08:36:01.092Z,4.40
2023-04-25T08:38:32.612Z,5.80
2023-04-25T08:41:04.515Z,7.00
2023-04-25T08:43:38.924Z,6.40
2023-04-25T08:46:10.070Z,4.30
2023-04-25T08:48:50.417Z,6.50
2023-04-25T08:51:26.893Z,4.60
2023-04-25T08:54:02.463Z,6.60
2023-04-25T08:56:40.717Z,4.90
2023-04-25T08:59:11.450Z,6.00
2023-04-25T09:01:43.149Z,4.90
2023-04-25T09:04:15.596Z,4.70
2023-04-25T09:06:46.556Z,4.90
2023-04-25T09:09:17.766Z,6.60
2023-04-25T09:11:48.629Z,6.40
2023-04-25T09:14:21.798Z,4.70
2023-04-25T09:17:10.786Z,4.40
2023-04-25T09:19:42.247Z,3.70
2023-04-25T09:22:22.714Z,5.70
2023-04-25T09:24:53.538Z,4.10
2023-04-25T09:27:27.954Z,3.10
2023-04-25T09:30:18.302Z,5.00
2023-04-25T09:33:06.046Z,7.10
2023-04-25T09:35:41.075Z,4.70
2023-04-25T09:38:15.084Z,4.10
2023-04-25T09:41:04.029Z,4.80
2023-04-25T09:43:42.008Z,3.70
2023-04-25T09:46:13.440Z,5.20
2023-04-25T09:48:54.705Z,6.50
2023-04-25T09:51:36.483Z,10.30
2023-04-25T09:54:09.046Z,3.90
2023-04-25T09:56:53.172Z,5.80
2023-04-25T09:59:25.544Z,3.80
2023-04-25T10:01:57.882Z,5.90
2023-04-25T10:04:38.859Z,4.60
2023-04-25T10:07:31.792Z,6.00
2023-04-25T10:10:07.137Z,4.30
2023-04-25T10:12:38.251Z,4.10
2023-04-25T10:15:10.952Z,3.30
2023-04-25T10:17:42.353Z,4.50
2023-04-25T10:20:13.378Z,5.40
2023-04-25T10:22:46.694Z,4.80
2023-04-25T10:25:17.887Z,4.00
2023-04-25T10:27:48.357Z,4.40
2023-04-25T10:30:20.146Z,3.80
2023-04-25T10:32:52.020Z,2.60
2023-04-25T10:35:28.886Z,5.20
2023-04-25T10:40:32.659Z,3.30
2023-04-25T10:43:33.584Z,3.60
2023-04-25T10:46:04.677Z,2.70
2023-04-25T10:48:36.401Z,5.20
2023-04-25T10:51:12.305Z,3.50
2023-04-25T10:53:43.118Z,4.70
2023-04-25T10:56:21.150Z,2.70
2023-04-25T10:58:53.065Z,2.50
2023-04-25T11:01:27.360Z,4.50
2023-04-25T11:04:01.953Z,2.30
2023-04-25T11:06:46.380Z,1.80
2023-04-25T11:09:16.732Z,2.10
2023-04-25T11:11:57.403Z,2.00
2023-04-25T11:14:27.888Z,1.90
2023-04-25T11:17:00.663Z,3.50
2023-04-25T11:19:32.134Z,2.90
2023-04-25T11:22:04.155Z,2.10
2023-04-25T11:24:36.344Z,3.00
2023-04-25T11:27:07.755Z,3.00
2023-04-25T11:29:38.491Z,2.90
2023-04-25T11:32:09.591Z,1.50
2023-04-25T11:34:39.937Z,1.50
2023-04-25T11:37:10.305Z,1.80
2023-04-25T11:39:44.488Z,3.00
2023-04-25T11:42:14.923Z,2.90
2023-04-25T11:44:45.646Z,1.70
2023-04-25T11:47:16.189Z,2.60
2023-04-25T11:49:46.553Z,1.70
2023-04-25T11:52:17.085Z,2.10
2023-04-25T11:54:47.954Z,1.30
2023-04-25T11:57:20.611Z,1.30
2023-04-25T11:59:51.225Z,1.20
2023-04-25T12:02:29.512Z,2.40
2023-04-25T12:05:21.517Z,1.60
2023-04-25T12:07:54.970Z,1.80
2023-04-25T12:10:26.551Z,1.70
2023-04-25T12:12:56.938Z,1.00
2023-04-25T12:15:29.006Z,2.90
2023-04-25T12:17:59.370Z,3.40
2023-04-25T12:20:29.888Z,3.30
2023-04-25T12:23:01.279Z,0.70
2023-04-25T12:25:43.105Z,2.90
2023-04-25T12:28:20.651Z,3.00
2023-04-25T12:30:59.704Z,2.40
2023-04-25T12:33:32.016Z,1.60
2023-04-25T12:36:06.415Z,1.70
2023-04-25T12:38:39.848Z,2.60
2023-04-25T12:41:10.637Z,1.80
2023-04-25T12:43:40.980Z,1.10
2023-04-25T12:46:11.509Z,1.10
2023-04-25T12:48:41.929Z,1.50
2023-04-25T12:51:12.284Z,1.80
2023-04-25T12:53:43.052Z,2.00
2023-04-25T12:56:13.437Z,0.80
2023-04-25T12:58:45.190Z,1.70
2023-04-25T13:01:15.724Z,1.50
2023-04-25T13:03:46.212Z,3.00
2023-04-25T13:06:16.747Z,1.10
2023-04-25T13:08:47.150Z,1.40
2023-04-25T13:11:17.751Z,0.70
2023-04-25T13:13:48.637Z,1.00
2023-04-25T13:16:21.865Z,2.00
2023-04-25T13:18:52.410Z,1.40
2023-04-25T13:21:22.793Z,3.00
2023-04-25T13:23:53.376Z,0.90
2023-04-25T13:26:24.343Z,1.70
2023-04-25T13:28:54.739Z,1.30
2023-04-25T13:31:25.676Z,1.80
2023-04-25T13:33:56.033Z,1.80
2023-04-25T13:36:26.919Z,1.60
2023-04-25T13:38:57.315Z,1.70
2023-04-25T13:41:27.609Z,0.90
2023-04-25T13:43:57.949Z,1.70
2023-04-25T13:46:44.721Z,0.80
2023-04-25T13:49:16.577Z,1.60
2023-04-25T13:51:47.304Z,1.70
2023-04-25T13:54:17.619Z,1.90
2023-04-25T13:56:47.967Z,1.20
2023-04-25T13:59:18.291Z,2.00
2023-04-25T14:01:48.648Z,1.10
2023-04-25T14:04:19.335Z,1.90
2023-04-25T14:06:49.686Z,2.00
2023-04-25T14:09:21.904Z,2.20
2023-04-25T14:11:52.261Z,2.70
2023-04-25T14:14:23.146Z,1.50
2023-04-25T14:16:55.200Z,1.10
2023-04-25T14:19:25.674Z,1.30
2023-04-25T14:21:56.298Z,3.50
2023-04-25T14:24:27.041Z,1.70
2023-04-25T14:26:57.679Z,2.10
2023-04-25T14:29:27.929Z,1.20
2023-04-25T14:31:59.750Z,2.50
2023-04-25T14:34:30.292Z,1.20
2023-04-25T14:37:00.867Z,2.50
2023-04-25T14:39:31.244Z,5.00
2023-04-25T14:42:02.472Z,1.50
2023-04-25T14:44:32.800Z,1.40
2023-04-25T14:47:03.773Z,1.90
2023-04-25T14:49:35.187Z,1.70
2023-04-25T14:52:05.730Z,2.00
2023-04-25T14:54:36.370Z,1.50
2023-04-25T14:57:06.729Z,1.80
2023-04-25T14:59:37.332Z,3.60
2023-04-25T15:02:08.017Z,1.00
2023-04-25T15:04:38.458Z,1.40
2023-04-25T15:07:09.763Z,2.80
2023-04-25T15:09:40.107Z,2.50
2023-04-25T15:12:11.694Z,2.30
2023-04-25T15:14:42.090Z,1.70
2023-04-25T15:17:14.637Z,3.10
2023-04-25T15:19:45.058Z,6.90
2023-04-25T15:22:15.466Z,3.00
2023-04-25T15:24:45.836Z,3.70
2023-04-25T15:27:16.768Z,2.40
2023-04-25T15:29:47.584Z,2.90
2023-04-25T15:32:18.199Z,1.60
2023-04-25T15:34:48.731Z,2.00
2023-04-25T15:37:19.434Z,3.50
2023-04-25T15:39:49.799Z,3.30
2023-04-25T15:42:20.090Z,1.70
2023-04-25T15:44:50.549Z,3.40
2023-04-25T15:47:20.931Z,3.50
2023-04-25T15:49:51.316Z,5.30
2023-04-25T15:52:22.417Z,2.60
2023-04-25T15:54:53.172Z,3.00
2023-04-25T15:57:24.159Z,4.60
2023-04-25T15:59:54.792Z,2.60
2023-04-25T16:02:25.217Z,1.80
2023-04-25T16:04:55.797Z,1.30
2023-04-25T16:07:26.264Z,1.20
2023-04-25T16:09:56.589Z,1.80
2023-04-25T16:12:28.480Z,1.60
2023-04-25T16:14:59.278Z,2.10
2023-04-25T16:17:30.226Z,3.10
2023-04-25T16:20:01.918Z,1.60
2023-04-25T16:22:32.588Z,1.90
2023-04-25T16:25:02.972Z,1.60
2023-04-25T16:27:34.599Z,3.50
2023-04-25T16:30:06.281Z,4.90
2023-04-25T16:32:38.104Z,4.20
2023-04-25T16:35:10.273Z,2.40
2023-04-25T16:37:40.793Z,1.40
2023-04-25T16:40:12.730Z,2.80
2023-04-25T16:42:43.045Z,3.20
2023-04-25T16:45:17.818Z,1.90
2023-04-25T16:47:48.394Z,1.50
2023-04-25T16:50:19.923Z,1.80
2023-04-25T16:52:51.190Z,2.40
2023-04-25T16:55:22.157Z,3.00
2023-04-25T16:57:52.541Z,3.30
2023-04-25T17:00:23.886Z,2.20
2023-04-25T17:02:54.335Z,4.60
2023-04-25T17:05:25.406Z,4.60
2023-04-25T17:07:56.825Z,3.50
2023-04-25T17:10:27.560Z,2.20
2023-04-25T17:12:57.924Z,3.40
2023-04-25T17:15:28.346Z,4.10
2023-04-25T17:18:00.549Z,4.30
2023-04-25T17:20:31.210Z,3.70
2023-04-25T17:23:02.364Z,5.30
2023-04-25T17:25:33.748Z,4.70
2023-04-25T17:28:04.389Z,3.90
2023-04-25T17:30:34.800Z,3.60
2023-04-25T17:33:06.706Z,4.10
2023-04-25T17:35:37.708Z,5.40
2023-04-25T17:38:08.773Z,3.20
2023-04-25T17:40:39.160Z,5.80
2023-04-25T17:43:09.599Z,3.70
2023-04-25T17:45:39.907Z,3.30
2023-04-25T17:48:10.219Z,4.60
2023-04-25T17:50:40.535Z,6.00
2023-04-25T17:53:11.267Z,7.30
2023-04-25T17:55:43.782Z,4.20
2023-04-25T17:58:14.893Z,8.60
2023-04-25T18:00:45.323Z,4.90
2023-04-25T18:03:16.538Z,3.60
2023-04-25T18:05:47.043Z,5.10
2023-04-25T18:08:17.952Z,3.90
2023-04-25T18:10:48.557Z,6.40
2023-04-25T18:13:18.838Z,7.20
2023-04-25T18:15:49.489Z,7.60
2023-04-25T18:18:25.307Z,4.50
2023-04-25T18:20:55.952Z,5.50
2023-04-25T18:23:26.778Z,6.50
2023-04-25T18:25:57.057Z,3.30
2023-04-25T18:28:27.583Z,4.50
2023-04-25T18:30:58.007Z,6.60
2023-04-25T18:33:28.449Z,5.80
2023-04-25T18:36:00.062Z,4.90
2023-04-25T18:41:23.998Z,6.20
2023-04-25T18:43:55.259Z,8.90
2023-04-25T18:46:26.161Z,6.00
2023-04-25T18:48:57.555Z,13.20
2023-04-25T18:51:29.513Z,4.70
2023-04-25T18:54:00.200Z,6.30
2023-04-25T18:56:31.032Z,7.40
2023-04-25T18:59:01.352Z,8.80
2023-04-25T19:01:32.290Z,9.30
2023-04-25T19:04:05.200Z,6.80
2023-04-25T19:06:36.993Z,8.70
2023-04-25T19:09:07.855Z,11.10
2023-04-25T19:11:38.165Z,7.00
2023-04-25T19:14:08.566Z,5.60
2023-04-25T19:16:39.600Z,13.50
2023-04-25T19:19:11.460Z,6.10
2023-04-25T19:21:42.332Z,10.30
2023-04-25T19:24:13.244Z,8.30
2023-04-25T19:26:46.074Z,6.80
2023-04-25T19:29:16.728Z,6.60
2023-04-25T19:31:47.622Z,7.20
2023-04-25T19:34:18.250Z,9.40
2023-04-25T19:36:52.672Z,7.70
2023-04-25T19:39:23.581Z,7.80
2023-04-25T19:41:55.210Z,9.80
2023-04-25T19:44:25.706Z,10.60
2023-04-25T19:46:55.988Z,6.10
2023-04-25T19:49:27.023Z,11.90
2023-04-25T19:51:57.313Z,7.00
2023-04-25T19:54:27.645Z,9.30
2023-04-25T19:56:58.797Z,6.20
2023-04-25T19:59:29.195Z,8.40
2023-04-25T20:02:01.046Z,9.00
2023-04-25T20:04:31.685Z,8.80
2023-04-25T20:07:01.985Z,5.70
2023-04-25T20:09:32.407Z,6.10
2023-04-25T20:12:04.262Z,5.20
2023-04-25T20:14:34.842Z,6.90
2023-04-25T20:17:05.175Z,5.80
2023-04-25T20:19:37.123Z,11.10
2023-04-25T20:22:07.711Z,6.10
2023-04-25T20:24:38.008Z,7.20
2023-04-25T20:27:08.385Z,5.70
2023-04-25T20:29:38.732Z,5.70
2023-04-25T20:32:09.745Z,7.70
2023-04-25T20:34:40.113Z,7.40
2023-04-25T20:37:10.428Z,5.10
2023-04-25T20:39:40.716Z,8.80
2023-04-25T20:42:11.047Z,6.90
2023-04-25T20:44:41.589Z,6.60
2023-04-25T20:47:12.166Z,8.90
2023-04-25T20:49:42.555Z,13.70
2023-04-25T20:52:13.030Z,7.50
2023-04-25T20:54:43.661Z,7.50
2023-04-25T20:57:14.055Z,7.50
2023-04-25T20:59:44.839Z,8.90
2023-04-25T21:02:15.846Z,7.50
2023-04-25T21:04:46.478Z,9.00
2023-04-25T21:07:17.053Z,9.70
2023-04-25T21:09:47.970Z,5.70
2023-04-25T21:12:18.385Z,6.90
2023-04-25T21:14:48.720Z,9.70
2023-04-25T21:17:19.037Z,9.20
2023-04-25T21:19:49.462Z,11.10
2023-04-25T21:22:19.774Z,7.00
2023-04-25T21:24:53.895Z,9.60
2023-04-25T21:27:24.291Z,8.10
2023-04-25T21:29:54.565Z,6.00
2023-04-25T21:32:25.320Z,7.40
2023-04-25T21:34:55.720Z,7.20
2023-04-25T21:37:26.108Z,7.70
2023-04-25T21:39:56.977Z,12.10
2023-04-25T21:42:27.372Z,6.80
2023-04-25T21:44:57.778Z,10.20
2023-04-25T21:47:28.130Z,9.00
2023-04-25T21:49:59.293Z,9.90
2023-04-25T21:52:29.819Z,7.60
2023-04-25T21:55:00.272Z,10.30
2023-04-25T21:57:30.531Z,7.80
2023-04-25T22:00:00.843Z,9.10
2023-04-25T22:02:31.659Z,5.10
2023-04-25T22:05:02.388Z,9.50
2023-04-25T22:07:32.820Z,7.10
2023-04-25T22:10:03.225Z,5.90
2023-04-25T22:12:33.572Z,8.60
2023-04-25T22:15:04.656Z,4.80
2023-04-25T22:17:35.443Z,6.50
2023-04-25T22:20:10.610Z,7.80
2023-04-25T22:22:41.573Z,7.00
2023-04-25T22:25:12.973Z,7.20
2023-04-25T22:27:44.857Z,7.00
2023-04-25T22:30:15.676Z,9.40
2023-04-25T22:32:46.117Z,8.70
2023-04-25T22:35:16.404Z,7.50
2023-04-25T22:37:46.813Z,7.90
2023-04-25T22:40:17.115Z,5.40
2023-04-25T22:42:47.490Z,11.20
2023-04-25T22:45:18.047Z,9.20
2023-04-25T22:47:48.392Z,7.70
2023-04-25T22:50:19.522Z,11.50
2023-04-25T22:52:50.114Z,8.30
2023-04-25T22:55:22.481Z,6.00
2023-04-25T22:57:53.171Z,8.90
2023-04-25T23:00:26.245Z,9.30
2023-04-25T23:02:57.136Z,7.00
2023-04-25T23:05:28.326Z,8.80
2023-04-25T23:07:59.115Z,5.20
2023-04-25T23:10:30.292Z,6.90
2023-04-25T23:13:01.062Z,8.70
2023-04-25T23:15:31.656Z,4.10
2023-04-25T23:18:02.326Z,5.60
2023-04-25T23:20:33.723Z,9.00
2023-04-25T23:23:04.078Z,6.00
2023-04-25T23:25:34.443Z,6.70
2023-04-25T23:28:04.792Z,5.80
2023-04-25T23:30:35.128Z,6.10
2023-04-25T23:33:05.658Z,7.20
2023-04-25T23:35:39.116Z,4.60
2023-04-25T23:38:09.492Z,8.30
2023-04-25T23:40:39.582Z,8.60
2023-04-25T23:43:09.947Z,5.30
2023-04-25T23:45:43.196Z,6.40
2023-04-25T23:48:13.776Z,12.50
2023-04-25T23:50:44.188Z,7.50
2023-04-25T23:53:14.522Z,6.30
2023-04-25T23:55:44.908Z,7.60
2023-04-25T23:58:15.218Z,8.90
